sensor_id;sensor_type;location;lat;lon;timestamp;P1;durP1;ratioP1;P2;durP2;ratioP2
59770;SDS011;45649;53.014;6.600;2023-08-20T00:00:33;5.83;;;3.13;;
59770;SDS011;45649;53.014;6.600;2023-08-20T00:03:02;7.00;;;3.53;;
59770;SDS011;45649;53.014;6.600;2023-08-20T00:05:29;7.60;;;3.60;;
59770;SDS011;45649;53.014;6.600;2023-08-20T00:07:56;5.83;;;3.30;;
59770;SDS011;45649;53.014;6.600;2023-08-20T00:10:22;5.80;;;3.13;;
59770;SDS011;45649;53.014;6.600;2023-08-20T00:12:48;5.80;;;2.87;;
59770;SDS011;45649;53.014;6.600;2023-08-20T00:15:14;4.03;;;2.60;;
59770;SDS011;45649;53.014;6.600;2023-08-20T00:17:40;8.43;;;2.47;;
59770;SDS011;45649;53.014;6.600;2023-08-20T00:20:07;3.83;;;2.33;;
59770;SDS011;45649;53.014;6.600;2023-08-20T00:22:43;6.57;;;2.70;;
59770;SDS011;45649;53.014;6.600;2023-08-20T00:25:13;3.77;;;2.70;;
59770;SDS011;45649;53.014;6.600;2023-08-20T00:27:39;4.27;;;2.40;;
59770;SDS011;45649;53.014;6.600;2023-08-20T00:30:06;4.73;;;2.67;;
59770;SDS011;45649;53.014;6.600;2023-08-20T00:32:32;4.03;;;2.80;;
59770;SDS011;45649;53.014;6.600;2023-08-20T00:34:58;6.50;;;3.17;;
59770;SDS011;45649;53.014;6.600;2023-08-20T00:37:24;4.67;;;2.87;;
59770;SDS011;45649;53.014;6.600;2023-08-20T00:39:50;4.63;;;3.10;;
59770;SDS011;45649;53.014;6.600;2023-08-20T00:42:17;5.97;;;3.07;;
59770;SDS011;45649;53.014;6.600;2023-08-20T00:44:43;4.83;;;3.10;;
59770;SDS011;45649;53.014;6.600;2023-08-20T00:47:10;4.73;;;2.93;;
59770;SDS011;45649;53.014;6.600;2023-08-20T00:49:36;3.93;;;2.53;;
59770;SDS011;45649;53.014;6.600;2023-08-20T00:52:03;6.03;;;2.80;;
59770;SDS011;45649;53.014;6.600;2023-08-20T00:54:29;3.70;;;2.77;;
59770;SDS011;45649;53.014;6.600;2023-08-20T00:56:57;2.93;;;2.13;;
59770;SDS011;45649;53.014;6.600;2023-08-20T00:59:25;3.57;;;2.50;;
59770;SDS011;45649;53.014;6.600;2023-08-20T01:01:51;5.00;;;2.73;;
59770;SDS011;45649;53.014;6.600;2023-08-20T01:04:17;3.73;;;2.57;;
59770;SDS011;45649;53.014;6.600;2023-08-20T01:11:47;5.13;;;3.17;;
59770;SDS011;45649;53.014;6.600;2023-08-20T01:14:16;3.10;;;2.60;;
59770;SDS011;45649;53.014;6.600;2023-08-20T01:16:42;3.23;;;2.93;;
59770;SDS011;45649;53.014;6.600;2023-08-20T01:19:10;5.67;;;2.90;;
59770;SDS011;45649;53.014;6.600;2023-08-20T01:21:37;8.23;;;3.77;;
59770;SDS011;45649;53.014;6.600;2023-08-20T01:29:15;7.13;;;3.40;;
59770;SDS011;45649;53.014;6.600;2023-08-20T01:31:41;5.90;;;3.50;;
59770;SDS011;45649;53.014;6.600;2023-08-20T01:34:09;3.93;;;2.67;;
59770;SDS011;45649;53.014;6.600;2023-08-20T01:36:35;6.27;;;2.97;;
59770;SDS011;45649;53.014;6.600;2023-08-20T01:39:03;5.60;;;3.37;;
59770;SDS011;45649;53.014;6.600;2023-08-20T01:41:30;5.10;;;3.47;;
59770;SDS011;45649;53.014;6.600;2023-08-20T01:43:58;7.33;;;3.10;;
59770;SDS011;45649;53.014;6.600;2023-08-20T01:46:25;6.60;;;3.63;;
59770;SDS011;45649;53.014;6.600;2023-08-20T01:48:51;5.37;;;3.73;;
59770;SDS011;45649;53.014;6.600;2023-08-20T01:51:17;5.33;;;3.43;;
59770;SDS011;45649;53.014;6.600;2023-08-20T01:53:43;5.93;;;3.17;;
59770;SDS011;45649;53.014;6.600;2023-08-20T01:56:12;6.83;;;3.43;;
59770;SDS011;45649;53.014;6.600;2023-08-20T01:58:39;4.80;;;2.90;;
59770;SDS011;45649;53.014;6.600;2023-08-20T02:03:41;4.30;;;2.80;;
59770;SDS011;45649;53.014;6.600;2023-08-20T02:06:07;3.10;;;2.80;;
59770;SDS011;45649;53.014;6.600;2023-08-20T02:08:33;4.57;;;2.73;;
59770;SDS011;45649;53.014;6.600;2023-08-20T02:11:00;3.10;;;2.50;;
59770;SDS011;45649;53.014;6.600;2023-08-20T02:13:26;4.60;;;2.90;;
59770;SDS011;45649;53.014;6.600;2023-08-20T02:15:59;4.30;;;2.90;;
59770;SDS011;45649;53.014;6.600;2023-08-20T02:18:25;5.13;;;2.53;;
59770;SDS011;45649;53.014;6.600;2023-08-20T02:20:51;5.23;;;2.87;;
59770;SDS011;45649;53.014;6.600;2023-08-20T02:23:17;5.40;;;3.30;;
59770;SDS011;45649;53.014;6.600;2023-08-20T02:25:44;4.57;;;3.40;;
59770;SDS011;45649;53.014;6.600;2023-08-20T02:28:10;4.90;;;3.20;;
59770;SDS011;45649;53.014;6.600;2023-08-20T02:30:40;4.93;;;3.80;;
59770;SDS011;45649;53.014;6.600;2023-08-20T02:33:06;5.43;;;3.70;;
59770;SDS011;45649;53.014;6.600;2023-08-20T02:35:32;6.30;;;4.00;;
59770;SDS011;45649;53.014;6.600;2023-08-20T02:37:58;5.63;;;3.73;;
59770;SDS011;45649;53.014;6.600;2023-08-20T02:40:24;5.20;;;4.60;;
59770;SDS011;45649;53.014;6.600;2023-08-20T02:42:51;7.00;;;4.30;;
59770;SDS011;45649;53.014;6.600;2023-08-20T02:45:17;6.33;;;4.20;;
59770;SDS011;45649;53.014;6.600;2023-08-20T02:47:43;3.57;;;3.27;;
59770;SDS011;45649;53.014;6.600;2023-08-20T02:50:09;4.30;;;3.60;;
59770;SDS011;45649;53.014;6.600;2023-08-20T02:52:35;6.07;;;4.13;;
59770;SDS011;45649;53.014;6.600;2023-08-20T02:55:01;4.63;;;4.03;;
59770;SDS011;45649;53.014;6.600;2023-08-20T02:57:29;5.63;;;4.40;;
59770;SDS011;45649;53.014;6.600;2023-08-20T02:59:56;5.47;;;4.83;;
59770;SDS011;45649;53.014;6.600;2023-08-20T03:02:22;5.33;;;4.83;;
59770;SDS011;45649;53.014;6.600;2023-08-20T03:04:48;5.13;;;4.60;;
59770;SDS011;45649;53.014;6.600;2023-08-20T03:07:14;6.40;;;4.57;;
59770;SDS011;45649;53.014;6.600;2023-08-20T03:09:40;6.57;;;4.70;;
59770;SDS011;45649;53.014;6.600;2023-08-20T03:12:06;5.10;;;4.33;;
59770;SDS011;45649;53.014;6.600;2023-08-20T03:14:33;7.63;;;4.50;;
59770;SDS011;45649;53.014;6.600;2023-08-20T03:16:59;6.90;;;4.97;;
59770;SDS011;45649;53.014;6.600;2023-08-20T03:19:25;7.87;;;6.03;;
59770;SDS011;45649;53.014;6.600;2023-08-20T03:21:51;6.63;;;5.13;;
59770;SDS011;45649;53.014;6.600;2023-08-20T03:24:17;6.10;;;5.43;;
59770;SDS011;45649;53.014;6.600;2023-08-20T03:26:43;5.53;;;5.00;;
59770;SDS011;45649;53.014;6.600;2023-08-20T03:29:11;10.07;;;5.53;;
59770;SDS011;45649;53.014;6.600;2023-08-20T03:31:37;7.87;;;4.80;;
59770;SDS011;45649;53.014;6.600;2023-08-20T03:34:03;9.13;;;5.60;;
59770;SDS011;45649;53.014;6.600;2023-08-20T03:36:29;6.77;;;5.13;;
59770;SDS011;45649;53.014;6.600;2023-08-20T03:38:55;7.93;;;5.07;;
59770;SDS011;45649;53.014;6.600;2023-08-20T03:41:21;6.00;;;5.40;;
59770;SDS011;45649;53.014;6.600;2023-08-20T03:43:48;6.23;;;5.60;;
59770;SDS011;45649;53.014;6.600;2023-08-20T03:46:14;7.97;;;6.23;;
59770;SDS011;45649;53.014;6.600;2023-08-20T03:48:40;8.23;;;5.53;;
59770;SDS011;45649;53.014;6.600;2023-08-20T03:51:06;9.10;;;6.17;;
59770;SDS011;45649;53.014;6.600;2023-08-20T03:53:32;6.07;;;5.57;;
59770;SDS011;45649;53.014;6.600;2023-08-20T03:55:58;8.17;;;5.47;;
59770;SDS011;45649;53.014;6.600;2023-08-20T03:58:24;7.37;;;6.20;;
59770;SDS011;45649;53.014;6.600;2023-08-20T04:00:50;7.97;;;6.07;;
59770;SDS011;45649;53.014;6.600;2023-08-20T04:03:16;7.23;;;6.20;;
59770;SDS011;45649;53.014;6.600;2023-08-20T04:05:44;8.27;;;6.33;;
59770;SDS011;45649;53.014;6.600;2023-08-20T04:08:11;7.43;;;6.68;;
59770;SDS011;45649;53.014;6.600;2023-08-20T04:10:46;8.48;;;6.88;;
59770;SDS011;45649;53.014;6.600;2023-08-20T04:13:12;6.70;;;5.97;;
59770;SDS011;45649;53.014;6.600;2023-08-20T04:15:39;11.50;;;6.33;;
59770;SDS011;45649;53.014;6.600;2023-08-20T04:18:06;6.23;;;5.63;;
59770;SDS011;45649;53.014;6.600;2023-08-20T04:20:33;9.47;;;5.87;;
59770;SDS011;45649;53.014;6.600;2023-08-20T04:22:59;6.07;;;5.47;;
59770;SDS011;45649;53.014;6.600;2023-08-20T04:25:25;7.37;;;6.10;;
59770;SDS011;45649;53.014;6.600;2023-08-20T04:27:52;7.00;;;5.97;;
59770;SDS011;45649;53.014;6.600;2023-08-20T04:30:18;7.37;;;5.53;;
59770;SDS011;45649;53.014;6.600;2023-08-20T04:32:44;8.60;;;6.30;;
59770;SDS011;45649;53.014;6.600;2023-08-20T04:35:11;8.43;;;6.03;;
59770;SDS011;45649;53.014;6.600;2023-08-20T04:37:37;8.83;;;6.10;;
59770;SDS011;45649;53.014;6.600;2023-08-20T04:40:03;7.63;;;5.93;;
59770;SDS011;45649;53.014;6.600;2023-08-20T04:42:31;7.33;;;5.70;;
59770;SDS011;45649;53.014;6.600;2023-08-20T04:44:57;7.70;;;6.10;;
59770;SDS011;45649;53.014;6.600;2023-08-20T04:47:23;8.73;;;6.07;;
59770;SDS011;45649;53.014;6.600;2023-08-20T04:49:49;6.80;;;5.70;;
59770;SDS011;45649;53.014;6.600;2023-08-20T04:52:15;7.10;;;5.40;;
59770;SDS011;45649;53.014;6.600;2023-08-20T04:54:41;8.30;;;5.20;;
59770;SDS011;45649;53.014;6.600;2023-08-20T04:57:07;8.10;;;5.93;;
59770;SDS011;45649;53.014;6.600;2023-08-20T04:59:33;7.30;;;5.00;;
59770;SDS011;45649;53.014;6.600;2023-08-20T05:02:00;8.43;;;6.00;;
59770;SDS011;45649;53.014;6.600;2023-08-20T05:04:26;6.60;;;5.50;;
59770;SDS011;45649;53.014;6.600;2023-08-20T05:06:52;10.00;;;6.13;;
59770;SDS011;45649;53.014;6.600;2023-08-20T05:09:18;7.57;;;6.20;;
59770;SDS011;45649;53.014;6.600;2023-08-20T05:11:44;7.47;;;6.40;;
59770;SDS011;45649;53.014;6.600;2023-08-20T05:14:10;7.83;;;6.17;;
59770;SDS011;45649;53.014;6.600;2023-08-20T05:16:36;6.83;;;6.13;;
59770;SDS011;45649;53.014;6.600;2023-08-20T05:19:02;10.23;;;6.37;;
59770;SDS011;45649;53.014;6.600;2023-08-20T05:21:28;9.33;;;7.07;;
59770;SDS011;45649;53.014;6.600;2023-08-20T05:23:54;11.40;;;6.73;;
59770;SDS011;45649;53.014;6.600;2023-08-20T05:26:21;7.73;;;6.93;;
59770;SDS011;45649;53.014;6.600;2023-08-20T05:28:48;13.50;;;6.70;;
59770;SDS011;45649;53.014;6.600;2023-08-20T05:31:14;12.70;;;7.30;;
59770;SDS011;45649;53.014;6.600;2023-08-20T05:33:40;8.40;;;6.80;;
59770;SDS011;45649;53.014;6.600;2023-08-20T05:36:06;8.03;;;7.10;;
59770;SDS011;45649;53.014;6.600;2023-08-20T05:38:32;10.50;;;7.20;;
59770;SDS011;45649;53.014;6.600;2023-08-20T05:40:58;11.17;;;7.07;;
59770;SDS011;45649;53.014;6.600;2023-08-20T05:43:24;9.13;;;6.67;;
59770;SDS011;45649;53.014;6.600;2023-08-20T05:45:50;10.93;;;7.17;;
59770;SDS011;45649;53.014;6.600;2023-08-20T05:48:16;9.97;;;7.00;;
59770;SDS011;45649;53.014;6.600;2023-08-20T05:50:42;12.97;;;7.50;;
59770;SDS011;45649;53.014;6.600;2023-08-20T05:53:08;8.53;;;6.60;;
59770;SDS011;45649;53.014;6.600;2023-08-20T05:55:34;9.23;;;6.87;;
59770;SDS011;45649;53.014;6.600;2023-08-20T05:58:00;7.73;;;6.03;;
59770;SDS011;45649;53.014;6.600;2023-08-20T06:00:27;8.40;;;6.00;;
59770;SDS011;45649;53.014;6.600;2023-08-20T06:02:53;9.83;;;6.53;;
59770;SDS011;45649;53.014;6.600;2023-08-20T06:05:19;8.97;;;6.20;;
59770;SDS011;45649;53.014;6.600;2023-08-20T06:07:45;9.53;;;6.13;;
59770;SDS011;45649;53.014;6.600;2023-08-20T06:10:11;9.03;;;5.60;;
59770;SDS011;45649;53.014;6.600;2023-08-20T06:12:37;9.23;;;6.30;;
59770;SDS011;45649;53.014;6.600;2023-08-20T06:15:04;10.13;;;6.40;;
59770;SDS011;45649;53.014;6.600;2023-08-20T06:17:30;7.87;;;5.77;;
59770;SDS011;45649;53.014;6.600;2023-08-20T06:19:56;10.57;;;6.50;;
59770;SDS011;45649;53.014;6.600;2023-08-20T06:22:22;8.23;;;5.50;;
59770;SDS011;45649;53.014;6.600;2023-08-20T06:24:48;7.30;;;6.00;;
59770;SDS011;45649;53.014;6.600;2023-08-20T06:27:14;10.57;;;5.97;;
59770;SDS011;45649;53.014;6.600;2023-08-20T06:29:40;12.90;;;5.80;;
59770;SDS011;45649;53.014;6.600;2023-08-20T06:32:06;8.73;;;5.53;;
59770;SDS011;45649;53.014;6.600;2023-08-20T06:34:35;9.93;;;5.93;;
59770;SDS011;45649;53.014;6.600;2023-08-20T06:37:01;8.33;;;4.70;;
59770;SDS011;45649;53.014;6.600;2023-08-20T06:39:27;7.40;;;4.53;;
59770;SDS011;45649;53.014;6.600;2023-08-20T06:41:54;7.57;;;5.20;;
59770;SDS011;45649;53.014;6.600;2023-08-20T06:44:20;8.40;;;5.07;;
59770;SDS011;45649;53.014;6.600;2023-08-20T06:46:46;6.93;;;4.20;;
59770;SDS011;45649;53.014;6.600;2023-08-20T06:49:12;8.20;;;4.70;;
59770;SDS011;45649;53.014;6.600;2023-08-20T06:51:38;8.40;;;4.43;;
59770;SDS011;45649;53.014;6.600;2023-08-20T06:54:04;8.70;;;5.00;;
59770;SDS011;45649;53.014;6.600;2023-08-20T06:56:31;8.07;;;4.30;;
59770;SDS011;45649;53.014;6.600;2023-08-20T06:58:57;5.17;;;3.77;;
59770;SDS011;45649;53.014;6.600;2023-08-20T07:01:23;8.70;;;3.73;;
59770;SDS011;45649;53.014;6.600;2023-08-20T07:03:49;9.23;;;4.20;;
59770;SDS011;45649;53.014;6.600;2023-08-20T07:06:15;10.03;;;4.30;;
59770;SDS011;45649;53.014;6.600;2023-08-20T07:08:43;8.50;;;4.00;;
59770;SDS011;45649;53.014;6.600;2023-08-20T07:11:09;8.77;;;4.53;;
59770;SDS011;45649;53.014;6.600;2023-08-20T07:13:36;9.30;;;4.20;;
59770;SDS011;45649;53.014;6.600;2023-08-20T07:16:02;7.70;;;4.07;;
59770;SDS011;45649;53.014;6.600;2023-08-20T07:18:28;10.43;;;3.77;;
59770;SDS011;45649;53.014;6.600;2023-08-20T07:20:54;8.97;;;3.90;;
59770;SDS011;45649;53.014;6.600;2023-08-20T07:23:20;9.97;;;3.80;;
59770;SDS011;45649;53.014;6.600;2023-08-20T07:25:47;12.30;;;3.97;;
59770;SDS011;45649;53.014;6.600;2023-08-20T07:28:17;9.00;;;3.70;;
59770;SDS011;45649;53.014;6.600;2023-08-20T07:30:51;10.50;;;3.83;;
59770;SDS011;45649;53.014;6.600;2023-08-20T07:33:17;9.07;;;3.83;;
59770;SDS011;45649;53.014;6.600;2023-08-20T07:35:43;8.17;;;3.70;;
59770;SDS011;45649;53.014;6.600;2023-08-20T07:38:09;10.43;;;4.10;;
59770;SDS011;45649;53.014;6.600;2023-08-20T07:40:35;9.53;;;3.50;;
59770;SDS011;45649;53.014;6.600;2023-08-20T07:43:01;7.27;;;3.53;;
59770;SDS011;45649;53.014;6.600;2023-08-20T07:45:28;8.53;;;3.60;;
59770;SDS011;45649;53.014;6.600;2023-08-20T07:47:54;8.60;;;3.57;;
59770;SDS011;45649;53.014;6.600;2023-08-20T07:50:20;10.03;;;3.50;;
59770;SDS011;45649;53.014;6.600;2023-08-20T07:52:46;7.60;;;3.50;;
59770;SDS011;45649;53.014;6.600;2023-08-20T07:55:12;10.37;;;3.20;;
59770;SDS011;45649;53.014;6.600;2023-08-20T07:57:38;7.97;;;3.30;;
59770;SDS011;45649;53.014;6.600;2023-08-20T08:00:05;11.93;;;3.00;;
59770;SDS011;45649;53.014;6.600;2023-08-20T08:02:31;11.63;;;2.97;;
59770;SDS011;45649;53.014;6.600;2023-08-20T08:04:57;6.67;;;2.70;;
59770;SDS011;45649;53.014;6.600;2023-08-20T08:07:23;7.50;;;2.80;;
59770;SDS011;45649;53.014;6.600;2023-08-20T08:09:50;6.63;;;2.70;;
59770;SDS011;45649;53.014;6.600;2023-08-20T08:12:16;8.73;;;2.90;;
59770;SDS011;45649;53.014;6.600;2023-08-20T08:14:42;6.87;;;2.57;;
59770;SDS011;45649;53.014;6.600;2023-08-20T08:17:08;9.23;;;2.80;;
59770;SDS011;45649;53.014;6.600;2023-08-20T08:19:34;7.93;;;2.50;;
59770;SDS011;45649;53.014;6.600;2023-08-20T08:22:00;9.67;;;2.70;;
59770;SDS011;45649;53.014;6.600;2023-08-20T08:24:26;8.43;;;2.50;;
59770;SDS011;45649;53.014;6.600;2023-08-20T08:26:52;7.23;;;2.73;;
59770;SDS011;45649;53.014;6.600;2023-08-20T08:29:18;7.20;;;2.63;;
59770;SDS011;45649;53.014;6.600;2023-08-20T08:31:44;7.73;;;2.17;;
59770;SDS011;45649;53.014;6.600;2023-08-20T08:34:10;5.93;;;2.20;;
59770;SDS011;45649;53.014;6.600;2023-08-20T08:36:36;7.33;;;2.40;;
59770;SDS011;45649;53.014;6.600;2023-08-20T08:39:02;6.77;;;1.90;;
59770;SDS011;45649;53.014;6.600;2023-08-20T08:41:28;9.93;;;2.47;;
59770;SDS011;45649;53.014;6.600;2023-08-20T08:43:56;8.70;;;2.30;;
59770;SDS011;45649;53.014;6.600;2023-08-20T08:46:22;5.10;;;1.70;;
59770;SDS011;45649;53.014;6.600;2023-08-20T08:48:49;7.53;;;2.00;;
59770;SDS011;45649;53.014;6.600;2023-08-20T08:51:16;6.47;;;2.00;;
59770;SDS011;45649;53.014;6.600;2023-08-20T08:53:43;6.53;;;1.90;;
59770;SDS011;45649;53.014;6.600;2023-08-20T08:56:10;5.57;;;1.70;;
59770;SDS011;45649;53.014;6.600;2023-08-20T08:58:36;6.87;;;2.10;;
59770;SDS011;45649;53.014;6.600;2023-08-20T09:01:02;4.63;;;1.93;;
59770;SDS011;45649;53.014;6.600;2023-08-20T09:03:28;6.93;;;1.87;;
59770;SDS011;45649;53.014;6.600;2023-08-20T09:05:55;5.17;;;1.90;;
59770;SDS011;45649;53.014;6.600;2023-08-20T09:08:31;6.53;;;2.00;;
59770;SDS011;45649;53.014;6.600;2023-08-20T09:10:59;4.83;;;2.13;;
59770;SDS011;45649;53.014;6.600;2023-08-20T09:13:35;6.17;;;1.60;;
59770;SDS011;45649;53.014;6.600;2023-08-20T09:16:08;4.50;;;1.90;;
59770;SDS011;45649;53.014;6.600;2023-08-20T09:18:39;3.83;;;1.70;;
59770;SDS011;45649;53.014;6.600;2023-08-20T09:21:09;7.03;;;1.87;;
59770;SDS011;45649;53.014;6.600;2023-08-20T09:23:35;7.33;;;1.90;;
59770;SDS011;45649;53.014;6.600;2023-08-20T09:26:02;5.07;;;1.70;;
59770;SDS011;45649;53.014;6.600;2023-08-20T09:28:29;7.00;;;2.63;;
59770;SDS011;45649;53.014;6.600;2023-08-20T09:30:59;7.37;;;2.30;;
59770;SDS011;45649;53.014;6.600;2023-08-20T09:33:28;5.70;;;2.20;;
59770;SDS011;45649;53.014;6.600;2023-08-20T09:35:55;5.73;;;2.00;;
59770;SDS011;45649;53.014;6.600;2023-08-20T09:38:22;6.30;;;1.90;;
59770;SDS011;45649;53.014;6.600;2023-08-20T09:40:49;6.27;;;1.77;;
59770;SDS011;45649;53.014;6.600;2023-08-20T09:43:18;4.47;;;1.60;;
59770;SDS011;45649;53.014;6.600;2023-08-20T09:45:46;4.67;;;1.53;;
59770;SDS011;45649;53.014;6.600;2023-08-20T09:48:13;5.20;;;1.73;;
59770;SDS011;45649;53.014;6.600;2023-08-20T09:50:39;4.20;;;1.53;;
59770;SDS011;45649;53.014;6.600;2023-08-20T09:53:06;4.67;;;1.70;;
59770;SDS011;45649;53.014;6.600;2023-08-20T09:55:34;6.40;;;2.03;;
59770;SDS011;45649;53.014;6.600;2023-08-20T09:58:02;6.47;;;2.33;;
59770;SDS011;45649;53.014;6.600;2023-08-20T10:00:28;4.30;;;1.60;;
59770;SDS011;45649;53.014;6.600;2023-08-20T10:02:54;4.07;;;1.50;;
59770;SDS011;45649;53.014;6.600;2023-08-20T10:05:20;6.07;;;1.93;;
59770;SDS011;45649;53.014;6.600;2023-08-20T10:07:49;6.80;;;2.00;;
59770;SDS011;45649;53.014;6.600;2023-08-20T10:10:15;6.67;;;1.80;;
59770;SDS011;45649;53.014;6.600;2023-08-20T10:12:42;4.23;;;1.53;;
59770;SDS011;45649;53.014;6.600;2023-08-20T10:15:12;6.30;;;1.83;;
59770;SDS011;45649;53.014;6.600;2023-08-20T10:17:39;5.93;;;1.90;;
59770;SDS011;45649;53.014;6.600;2023-08-20T10:20:07;4.70;;;1.97;;
59770;SDS011;45649;53.014;6.600;2023-08-20T10:22:40;4.07;;;1.57;;
59770;SDS011;45649;53.014;6.600;2023-08-20T10:25:10;8.93;;;2.00;;
59770;SDS011;45649;53.014;6.600;2023-08-20T10:27:37;4.80;;;1.67;;
59770;SDS011;45649;53.014;6.600;2023-08-20T10:30:17;5.27;;;1.90;;
59770;SDS011;45649;53.014;6.600;2023-08-20T10:32:46;5.70;;;1.80;;
59770;SDS011;45649;53.014;6.600;2023-08-20T10:35:12;6.43;;;1.80;;
59770;SDS011;45649;53.014;6.600;2023-08-20T10:37:38;5.20;;;1.63;;
59770;SDS011;45649;53.014;6.600;2023-08-20T10:40:06;5.27;;;1.70;;
59770;SDS011;45649;53.014;6.600;2023-08-20T10:42:32;4.87;;;1.73;;
59770;SDS011;45649;53.014;6.600;2023-08-20T10:45:02;4.20;;;1.50;;
59770;SDS011;45649;53.014;6.600;2023-08-20T10:50:11;5.37;;;1.60;;
59770;SDS011;45649;53.014;6.600;2023-08-20T10:52:38;3.73;;;1.20;;
59770;SDS011;45649;53.014;6.600;2023-08-20T10:55:06;4.67;;;1.43;;
59770;SDS011;45649;53.014;6.600;2023-08-20T10:57:36;2.87;;;1.30;;
59770;SDS011;45649;53.014;6.600;2023-08-20T11:00:03;3.83;;;1.20;;
59770;SDS011;45649;53.014;6.600;2023-08-20T11:02:35;3.33;;;1.40;;
59770;SDS011;45649;53.014;6.600;2023-08-20T11:05:02;3.53;;;1.60;;
59770;SDS011;45649;53.014;6.600;2023-08-20T11:07:29;3.60;;;1.50;;
59770;SDS011;45649;53.014;6.600;2023-08-20T11:09:57;3.77;;;1.30;;
59770;SDS011;45649;53.014;6.600;2023-08-20T11:12:23;4.73;;;1.40;;
59770;SDS011;45649;53.014;6.600;2023-08-20T11:14:49;2.80;;;1.03;;
59770;SDS011;45649;53.014;6.600;2023-08-20T11:17:15;2.77;;;1.23;;
59770;SDS011;45649;53.014;6.600;2023-08-20T11:19:41;3.67;;;1.20;;
59770;SDS011;45649;53.014;6.600;2023-08-20T11:22:07;1.90;;;1.03;;
59770;SDS011;45649;53.014;6.600;2023-08-20T11:24:34;3.20;;;1.20;;
59770;SDS011;45649;53.014;6.600;2023-08-20T11:27:04;4.13;;;1.47;;
59770;SDS011;45649;53.014;6.600;2023-08-20T11:29:30;3.87;;;1.17;;
59770;SDS011;45649;53.014;6.600;2023-08-20T11:31:56;2.43;;;1.10;;
59770;SDS011;45649;53.014;6.600;2023-08-20T11:34:22;2.23;;;0.97;;
59770;SDS011;45649;53.014;6.600;2023-08-20T11:36:49;2.47;;;1.10;;
59770;SDS011;45649;53.014;6.600;2023-08-20T11:39:15;2.40;;;1.00;;
59770;SDS011;45649;53.014;6.600;2023-08-20T11:41:41;2.60;;;1.20;;
59770;SDS011;45649;53.014;6.600;2023-08-20T11:44:08;3.83;;;1.00;;
59770;SDS011;45649;53.014;6.600;2023-08-20T11:46:41;1.23;;;0.93;;
59770;SDS011;45649;53.014;6.600;2023-08-20T11:49:11;1.80;;;1.00;;
59770;SDS011;45649;53.014;6.600;2023-08-20T11:51:37;2.90;;;1.00;;
59770;SDS011;45649;53.014;6.600;2023-08-20T11:54:07;2.27;;;1.00;;
59770;SDS011;45649;53.014;6.600;2023-08-20T11:56:33;3.10;;;1.00;;
59770;SDS011;45649;53.014;6.600;2023-08-20T11:59:00;2.47;;;0.97;;
59770;SDS011;45649;53.014;6.600;2023-08-20T12:01:33;2.77;;;1.10;;
59770;SDS011;45649;53.014;6.600;2023-08-20T12:04:00;3.53;;;1.40;;
59770;SDS011;45649;53.014;6.600;2023-08-20T12:06:27;3.13;;;1.20;;
59770;SDS011;45649;53.014;6.600;2023-08-20T12:08:55;2.70;;;1.30;;
59770;SDS011;45649;53.014;6.600;2023-08-20T12:11:25;3.10;;;1.23;;
59770;SDS011;45649;53.014;6.600;2023-08-20T12:13:51;3.97;;;1.40;;
59770;SDS011;45649;53.014;6.600;2023-08-20T12:16:18;5.10;;;1.40;;
59770;SDS011;45649;53.014;6.600;2023-08-20T12:18:47;3.60;;;1.37;;
59770;SDS011;45649;53.014;6.600;2023-08-20T12:21:13;2.37;;;1.30;;
59770;SDS011;45649;53.014;6.600;2023-08-20T12:23:39;4.67;;;1.33;;
59770;SDS011;45649;53.014;6.600;2023-08-20T12:26:05;5.33;;;1.50;;
59770;SDS011;45649;53.014;6.600;2023-08-20T12:28:33;2.73;;;1.23;;
59770;SDS011;45649;53.014;6.600;2023-08-20T12:30:59;4.00;;;1.77;;
59770;SDS011;45649;53.014;6.600;2023-08-20T12:33:25;5.37;;;1.60;;
59770;SDS011;45649;53.014;6.600;2023-08-20T12:35:54;4.40;;;1.60;;
59770;SDS011;45649;53.014;6.600;2023-08-20T12:38:21;4.50;;;1.63;;
59770;SDS011;45649;53.014;6.600;2023-08-20T12:40:47;3.17;;;1.30;;
59770;SDS011;45649;53.014;6.600;2023-08-20T12:43:13;4.47;;;1.30;;
59770;SDS011;45649;53.014;6.600;2023-08-20T12:45:39;3.93;;;1.37;;
59770;SDS011;45649;53.014;6.600;2023-08-20T12:48:05;4.83;;;1.83;;
59770;SDS011;45649;53.014;6.600;2023-08-20T12:50:32;3.03;;;1.47;;
59770;SDS011;45649;53.014;6.600;2023-08-20T12:52:58;5.03;;;1.40;;
59770;SDS011;45649;53.014;6.600;2023-08-20T12:55:25;4.23;;;1.30;;
59770;SDS011;45649;53.014;6.600;2023-08-20T13:00:20;4.00;;;1.37;;
59770;SDS011;45649;53.014;6.600;2023-08-20T13:02:46;3.77;;;1.40;;
59770;SDS011;45649;53.014;6.600;2023-08-20T13:05:13;4.07;;;1.40;;
59770;SDS011;45649;53.014;6.600;2023-08-20T13:07:39;3.33;;;1.40;;
59770;SDS011;45649;53.014;6.600;2023-08-20T13:10:06;4.43;;;1.53;;
59770;SDS011;45649;53.014;6.600;2023-08-20T13:12:33;4.20;;;1.50;;
59770;SDS011;45649;53.014;6.600;2023-08-20T13:14:59;4.77;;;1.30;;
59770;SDS011;45649;53.014;6.600;2023-08-20T13:17:27;3.50;;;1.43;;
59770;SDS011;45649;53.014;6.600;2023-08-20T13:19:53;4.23;;;1.60;;
59770;SDS011;45649;53.014;6.600;2023-08-20T13:22:19;2.37;;;1.30;;
59770;SDS011;45649;53.014;6.600;2023-08-20T13:24:45;3.47;;;1.40;;
59770;SDS011;45649;53.014;6.600;2023-08-20T13:27:11;4.67;;;1.57;;
59770;SDS011;45649;53.014;6.600;2023-08-20T13:29:37;3.53;;;1.60;;
59770;SDS011;45649;53.014;6.600;2023-08-20T13:32:03;3.77;;;1.63;;
59770;SDS011;45649;53.014;6.600;2023-08-20T13:34:29;4.60;;;1.70;;
59770;SDS011;45649;53.014;6.600;2023-08-20T13:36:55;2.67;;;1.40;;
59770;SDS011;45649;53.014;6.600;2023-08-20T13:39:21;3.67;;;1.60;;
59770;SDS011;45649;53.014;6.600;2023-08-20T13:41:48;2.77;;;1.70;;
59770;SDS011;45649;53.014;6.600;2023-08-20T13:44:15;2.83;;;1.20;;
59770;SDS011;45649;53.014;6.600;2023-08-20T13:46:41;4.07;;;1.37;;
59770;SDS011;45649;53.014;6.600;2023-08-20T13:49:07;2.83;;;1.50;;
59770;SDS011;45649;53.014;6.600;2023-08-20T13:51:33;2.93;;;1.37;;
59770;SDS011;45649;53.014;6.600;2023-08-20T13:54:00;2.27;;;1.13;;
59770;SDS011;45649;53.014;6.600;2023-08-20T13:56:26;2.87;;;1.17;;
59770;SDS011;45649;53.014;6.600;2023-08-20T13:58:53;2.30;;;1.20;;
59770;SDS011;45649;53.014;6.600;2023-08-20T14:01:19;3.23;;;1.17;;
59770;SDS011;45649;53.014;6.600;2023-08-20T14:03:45;2.77;;;1.30;;
59770;SDS011;45649;53.014;6.600;2023-08-20T14:06:11;1.77;;;0.80;;
59770;SDS011;45649;53.014;6.600;2023-08-20T14:08:37;2.30;;;1.03;;
59770;SDS011;45649;53.014;6.600;2023-08-20T14:11:04;2.17;;;1.30;;
59770;SDS011;45649;53.014;6.600;2023-08-20T14:13:30;1.50;;;0.90;;
59770;SDS011;45649;53.014;6.600;2023-08-20T14:15:57;1.37;;;0.97;;
59770;SDS011;45649;53.014;6.600;2023-08-20T14:18:23;1.57;;;0.87;;
59770;SDS011;45649;53.014;6.600;2023-08-20T14:20:49;1.97;;;1.00;;
59770;SDS011;45649;53.014;6.600;2023-08-20T14:23:15;3.63;;;1.20;;
59770;SDS011;45649;53.014;6.600;2023-08-20T14:25:41;2.83;;;1.33;;
59770;SDS011;45649;53.014;6.600;2023-08-20T14:28:08;1.77;;;1.10;;
59770;SDS011;45649;53.014;6.600;2023-08-20T14:30:37;3.87;;;1.43;;
59770;SDS011;45649;53.014;6.600;2023-08-20T14:33:04;1.87;;;1.00;;
59770;SDS011;45649;53.014;6.600;2023-08-20T14:35:30;2.30;;;1.00;;
59770;SDS011;45649;53.014;6.600;2023-08-20T14:37:56;1.83;;;0.83;;
59770;SDS011;45649;53.014;6.600;2023-08-20T14:40:22;1.37;;;0.77;;
59770;SDS011;45649;53.014;6.600;2023-08-20T14:42:49;2.03;;;0.90;;
59770;SDS011;45649;53.014;6.600;2023-08-20T14:45:15;1.20;;;0.90;;
59770;SDS011;45649;53.014;6.600;2023-08-20T14:47:41;1.23;;;0.67;;
59770;SDS011;45649;53.014;6.600;2023-08-20T14:50:07;2.23;;;0.90;;
59770;SDS011;45649;53.014;6.600;2023-08-20T14:52:34;1.97;;;0.83;;
59770;SDS011;45649;53.014;6.600;2023-08-20T14:55:00;1.27;;;0.80;;
59770;SDS011;45649;53.014;6.600;2023-08-20T14:57:26;2.37;;;1.00;;
59770;SDS011;45649;53.014;6.600;2023-08-20T14:59:53;2.37;;;0.90;;
59770;SDS011;45649;53.014;6.600;2023-08-20T15:02:19;2.73;;;1.20;;